Fergus Falls, MN

12:43 PM CDT on August 23, 2014 (GMT -0500)
Fergus Falls Municipal-Mickelson | Change Station
CLOSE
Current Station
Airport
Location: Fergus Falls,
Elevation: 1184 ft
Nearby Weather Stations

Elev 1184 ft 46.29 °N, 96.15 °W | Updated 9 minutes ago

Scattered Clouds
Scattered Clouds
72 °F
Feels Like 72 °F
N
8
Wind Variable Wind from East

Today
High -- | Low -- °F
--% Chance of Precip.
Yesterday
High -- | Low -- °F
Precip. -- in
6:33 AM 8:19 PM
Waning Crescent, 3% visible
Pressure 29.97 in
Visibility 10.0 miles
Clouds Scattered Clouds 1500 ft
Scattered Clouds 11000 ft
Dew Point 64 °F
Humidity 78%
Rainfall 0.00 in
Snow Depth Not available.
UV 7 out of 12
Pollen 1.70 out of 12
Air Quality Not available.
Flu Activity Not available.
METAR KFFM 231734Z AUTO 09007KT 10SM SCT015 SCT110 22/18 A2997 RMK AO2

More Conditions Fewer Conditions

Pressure 29.97 in
Visibility 10.0 miles
Clouds Scattered Clouds 1500 ft
Scattered Clouds 11000 ft
Dew Point 64 °F
Humidity 78%
Rainfall 0.00 in
Snow Depth Not available.
UV 7 out of 12
Pollen 1.70 out of 12
Air Quality Not available.
Flu Activity Not available.
METAR KFFM 231734Z AUTO 09007KT 10SM SCT015 SCT110 22/18 A2997 RMK AO2

More Conditions Fewer Conditions

10-Day Weather Forecast

Almanac

Astronomy

Aug. 23, 2014 Rise Set
Actual Time 6:33 AM CDT 8:19 PM CDT
Civil Twilight 6:01 AM CDT 8:51 PM CDT
Nautical Twilight 5:22 AM CDT 9:30 PM CDT
Astronomical Twilight 4:39 AM CDT 10:12 PM CDT
Moon 4:48 AM CDT 7:05 PM CDT
Length of Visible Light 14h 50m
Length of Day
13h 46m
Tomorrow will be 3m 4s shorter.
Waning Crescent, 3% of the Moon is Illuminated
Today
Waning Crescent
Aug 25
New
Sep 2
First Quarter
Sep 8
Full
Sep 15
Last Quarter

Today's Extremes

State Highs State Lows

Community

WunderPhotos

Upload Photos

1,746,537 photos uploaded!

WunderBlogs® & News

By Dr. Jeff Masters
Director of Meteorology, Weather Underground
By Kari Strenfel
Meteorologist, Weather Underground
By Christopher C. Burt
Weather Historian, Weather Underground
August 23, 2014
August 23, 2014
August 23, 2014

Nearby

Snow Depth

Station Depth Elevation
No new snow has been reported.

Earthquake Activity

City Distance Mag. Time & Date
No recent earthquake activity has been reported nearby.
Minimum magnitude displayed is 2.5.

Coastal Water Temperatures

Place Temperature
No Stations Reporting

Nearby Weather Stations